THY1525 LTFM-LFBD
Flight info
| Callsign | THY1525 |
|---|---|
| Flight time | N/A |
| Altitude | 36000 |
| Route | VADEN1D/35L VADEN N618 GOL Y520 LUKOV Q8 DOLAP DCT OBLAK DCT NAKIT DCT ROTAR DCT RONOP DCT GIGUS DCT BALSI DCT GIPNO DCT RUSIT DCT TIS DCT LMG |
| Aircraft | B38M/M-SDE1FGHILORVWXY/HB1 |
Departure
| Time | 2026-05-01 13:14 |
|---|---|
| Airport | İstanbul Airport (LTFM) |
Arrival
| Time | N/A |
|---|---|
| Airport | Bordeaux–Mérignac Airport (LFBD) |
| Time | Latitude | Longitude | Altitude | Speed | Heading |
|---|---|---|---|---|---|
| 2026-05-01 12:39 | 41.26647 | 28.73752 | 336 ft | 0 kts | 272° |
| 2026-05-01 12:58 | 41.26647 | 28.73756 | 336 ft | 3 kts | 271° |
| 2026-05-01 12:59 | 41.26649 | 28.73827 | 334 ft | 4 kts | 268° |
| 2026-05-01 12:59 | 41.26648 | 28.73857 | 331 ft | 4 kts | 290° |
| 2026-05-01 12:59 | 41.26614 | 28.73879 | 331 ft | 1 kts | 359° |
| 2026-05-01 13:00 | 41.26612 | 28.73879 | 336 ft | 0 kts | 359° |
| 2026-05-01 13:09 | 41.26631 | 28.73878 | 333 ft | 7 kts | 359° |
| 2026-05-01 13:09 | 41.26710 | 28.73876 | 332 ft | 16 kts | 359° |
| 2026-05-01 13:09 | 41.26881 | 28.73873 | 332 ft | 29 kts | 359° |
| 2026-05-01 13:10 | 41.27012 | 28.73870 | 334 ft | 12 kts | 351° |
| 2026-05-01 13:10 | 41.27050 | 28.73776 | 336 ft | 18 kts | 269° |
| 2026-05-01 13:10 | 41.27047 | 28.73547 | 334 ft | 29 kts | 269° |
| 2026-05-01 13:10 | 41.27045 | 28.73270 | 334 ft | 29 kts | 268° |
| 2026-05-01 13:11 | 41.27019 | 28.73109 | 333 ft | 12 kts | 203° |
| 2026-05-01 13:11 | 41.26930 | 28.73104 | 332 ft | 14 kts | 179° |
| 2026-05-01 13:11 | 41.26816 | 28.73107 | 335 ft | 21 kts | 178° |
| 2026-05-01 13:11 | 41.26628 | 28.73111 | 333 ft | 33 kts | 179° |
| 2026-05-01 13:12 | 41.26428 | 28.73115 | 335 ft | 21 kts | 179° |
| 2026-05-01 13:12 | 41.26274 | 28.73120 | 332 ft | 23 kts | 178° |
| 2026-05-01 13:12 | 41.26215 | 28.73072 | 335 ft | 10 kts | 264° |
| 2026-05-01 13:12 | 41.26215 | 28.72935 | 336 ft | 22 kts | 269° |
| 2026-05-01 13:13 | 41.26212 | 28.72690 | 336 ft | 28 kts | 269° |
| 2026-05-01 13:13 | 41.26219 | 28.72529 | 336 ft | 7 kts | 323° |
| 2026-05-01 13:13 | 41.26246 | 28.72524 | 335 ft | 0 kts | 359° |
| 2026-05-01 13:14 | 41.26367 | 28.72519 | 335 ft | 51 kts | 358° |
| 2026-05-01 13:14 | 41.26962 | 28.72512 | 333 ft | 117 kts | 358° |
| 2026-05-01 13:14 | 41.27955 | 28.72486 | 364 ft | 165 kts | 3° |
| 2026-05-01 13:14 | 41.29120 | 28.72480 | 1050 ft | 169 kts | 4° |
| 2026-05-01 13:15 | 41.30303 | 28.72460 | 1936 ft | 169 kts | 4° |
| 2026-05-01 13:15 | 41.31462 | 28.72418 | 2794 ft | 169 kts | 2° |
| 2026-05-01 13:15 | 41.32622 | 28.72391 | 3623 ft | 164 kts | 6° |
| 2026-05-01 13:15 | 41.33826 | 28.72433 | 4056 ft | 187 kts | 5° |
| 2026-05-01 13:16 | 41.35201 | 28.72469 | 4497 ft | 210 kts | 5° |
| 2026-05-01 13:16 | 41.36672 | 28.72484 | 5371 ft | 215 kts | 1° |
| 2026-05-01 13:16 | 41.38162 | 28.71909 | 6053 ft | 238 kts | 331° |
| 2026-05-01 13:17 | 41.41250 | 28.65885 | 8431 ft | 273 kts | 303° |
| 2026-05-01 13:17 | 41.42230 | 28.63694 | 9374 ft | 275 kts | 303° |
| 2026-05-01 13:18 | 41.44243 | 28.59219 | 10747 ft | 297 kts | 301° |
| 2026-05-01 13:18 | 41.45344 | 28.56775 | 11078 ft | 318 kts | 301° |
| 2026-05-01 13:18 | 41.46508 | 28.54189 | 11541 ft | 332 kts | 301° |
| 2026-05-01 13:18 | 41.47713 | 28.51510 | 11921 ft | 341 kts | 300° |
| 2026-05-01 13:19 | 41.48923 | 28.48818 | 12873 ft | 336 kts | 301° |
| 2026-05-01 13:19 | 41.50133 | 28.46124 | 13666 ft | 340 kts | 300° |
| 2026-05-01 13:19 | 41.52595 | 28.40633 | 14919 ft | 352 kts | 300° |
| 2026-05-01 13:20 | 41.53856 | 28.37816 | 15667 ft | 355 kts | 300° |
| 2026-05-01 13:20 | 41.55125 | 28.34978 | 16378 ft | 357 kts | 299° |
| 2026-05-01 13:20 | 41.56394 | 28.32141 | 17227 ft | 356 kts | 299° |
| 2026-05-01 13:21 | 41.58801 | 28.26226 | 18448 ft | 364 kts | 295° |
| 2026-05-01 13:21 | 41.59746 | 28.23717 | 19014 ft | 365 kts | 295° |
| 2026-05-01 13:21 | 41.60904 | 28.20659 | 19477 ft | 371 kts | 295° |
| 2026-05-01 13:21 | 41.62079 | 28.17571 | 20095 ft | 372 kts | 295° |
| 2026-05-01 13:22 | 41.63253 | 28.14487 | 20703 ft | 374 kts | 295° |
| 2026-05-01 13:22 | 41.64441 | 28.11363 | 21197 ft | 378 kts | 295° |
| 2026-05-01 13:22 | 41.65632 | 28.08229 | 21821 ft | 379 kts | 295° |
| 2026-05-01 13:22 | 41.66832 | 28.05071 | 22291 ft | 384 kts | 295° |
| 2026-05-01 13:23 | 41.68177 | 28.01963 | 22790 ft | 388 kts | 302° |
| 2026-05-01 13:23 | 41.69684 | 27.98963 | 23364 ft | 390 kts | 301° |
| 2026-05-01 13:23 | 41.71179 | 27.95919 | 23852 ft | 393 kts | 301° |
| 2026-05-01 13:23 | 41.72671 | 27.92845 | 24159 ft | 398 kts | 301° |
| 2026-05-01 13:24 | 41.74174 | 27.89730 | 24232 ft | 397 kts | 301° |
| 2026-05-01 13:24 | 41.75668 | 27.86624 | 24229 ft | 396 kts | 301° |
| 2026-05-01 13:24 | 41.77165 | 27.83505 | 24534 ft | 398 kts | 301° |
| 2026-05-01 13:25 | 41.80167 | 27.77238 | 25363 ft | 403 kts | 300° |
| 2026-05-01 13:25 | 41.81686 | 27.74066 | 25780 ft | 405 kts | 300° |
| 2026-05-01 13:25 | 41.83208 | 27.70879 | 26217 ft | 406 kts | 301° |
| 2026-05-01 13:25 | 41.84733 | 27.67688 | 26641 ft | 408 kts | 301° |
| 2026-05-01 13:26 | 41.86262 | 27.64479 | 26956 ft | 413 kts | 301° |
| 2026-05-01 13:26 | 41.87792 | 27.61268 | 27366 ft | 414 kts | 300° |
| 2026-05-01 13:26 | 41.89364 | 27.57965 | 27820 ft | 415 kts | 300° |
| 2026-05-01 13:26 | 41.90911 | 27.54712 | 28153 ft | 418 kts | 300° |
| 2026-05-01 13:27 | 41.92462 | 27.51445 | 28469 ft | 421 kts | 300° |
| 2026-05-01 13:27 | 41.94060 | 27.48077 | 28836 ft | 423 kts | 300° |
| 2026-05-01 13:27 | 41.97245 | 27.41353 | 29406 ft | 431 kts | 301° |
| 2026-05-01 13:28 | 42.00441 | 27.34594 | 30165 ft | 434 kts | 301° |
| 2026-05-01 13:28 | 42.02060 | 27.31160 | 30413 ft | 437 kts | 301° |
| 2026-05-01 13:29 | 42.05325 | 27.24226 | 30960 ft | 441 kts | 300° |
| 2026-05-01 13:29 | 42.09136 | 27.17759 | 31706 ft | 442 kts | 310° |
| 2026-05-01 13:30 | 42.17319 | 27.05439 | 33098 ft | 440 kts | 309° |
| 2026-05-01 13:31 | 42.21397 | 26.99289 | 33805 ft | 440 kts | 309° |
| 2026-05-01 13:31 | 42.27511 | 26.90044 | 34653 ft | 440 kts | 309° |
| 2026-05-01 13:32 | 42.31570 | 26.83890 | 35181 ft | 440 kts | 309° |
| 2026-05-01 13:33 | 42.37679 | 26.74605 | 35907 ft | 441 kts | 309° |
| 2026-05-01 13:33 | 42.41758 | 26.68386 | 36313 ft | 442 kts | 309° |
| 2026-05-01 13:34 | 42.49861 | 26.55999 | 36260 ft | 439 kts | 309° |
| 2026-05-01 13:35 | 42.53773 | 26.49658 | 36249 ft | 436 kts | 298° |
| 2026-05-01 13:35 | 42.54986 | 26.45919 | 36275 ft | 433 kts | 288° |
| 2026-05-01 13:36 | 42.58057 | 26.34323 | 36265 ft | 436 kts | 288° |
| 2026-05-01 13:36 | 42.61014 | 26.22680 | 36256 ft | 436 kts | 288° |
| 2026-05-01 13:37 | 42.62647 | 26.16201 | 36265 ft | 437 kts | 288° |
| 2026-05-01 13:37 | 42.64940 | 26.07071 | 36264 ft | 437 kts | 288° |
| 2026-05-01 13:38 | 42.67867 | 25.95364 | 36273 ft | 437 kts | 288° |
| 2026-05-01 13:39 | 42.69815 | 25.87541 | 36278 ft | 437 kts | 288° |
| 2026-05-01 13:39 | 42.71755 | 25.79723 | 36285 ft | 437 kts | 288° |
| 2026-05-01 13:40 | 42.73692 | 25.71891 | 36282 ft | 437 kts | 288° |
| 2026-05-01 13:40 | 42.75621 | 25.64067 | 36292 ft | 437 kts | 288° |
| 2026-05-01 13:41 | 42.77546 | 25.56232 | 36295 ft | 436 kts | 288° |
| 2026-05-01 13:41 | 42.79472 | 25.48364 | 36301 ft | 439 kts | 288° |
| 2026-05-01 13:42 | 42.81073 | 25.41803 | 36296 ft | 439 kts | 288° |
| 2026-05-01 13:42 | 42.82993 | 25.33915 | 36299 ft | 439 kts | 288° |
| 2026-05-01 13:43 | 42.84908 | 25.26014 | 36302 ft | 439 kts | 288° |
| 2026-05-01 13:43 | 42.86817 | 25.18112 | 36309 ft | 439 kts | 288° |
| 2026-05-01 13:44 | 42.88726 | 25.10188 | 36309 ft | 439 kts | 288° |
| 2026-05-01 13:44 | 42.90622 | 25.02285 | 36313 ft | 439 kts | 288° |
| 2026-05-01 13:45 | 42.92516 | 24.94362 | 36313 ft | 439 kts | 288° |
| 2026-05-01 13:45 | 42.94406 | 24.86431 | 36322 ft | 440 kts | 288° |
| 2026-05-01 13:46 | 42.96293 | 24.78484 | 36315 ft | 440 kts | 288° |
| 2026-05-01 13:46 | 42.98175 | 24.70528 | 36321 ft | 441 kts | 288° |
| 2026-05-01 13:47 | 43.00052 | 24.62568 | 36318 ft | 440 kts | 288° |
| 2026-05-01 13:47 | 43.01926 | 24.54592 | 36328 ft | 442 kts | 288° |
| 2026-05-01 13:48 | 43.03798 | 24.46595 | 36321 ft | 442 kts | 288° |
| 2026-05-01 13:48 | 43.05666 | 24.38593 | 36325 ft | 442 kts | 288° |
| 2026-05-01 13:49 | 43.07525 | 24.30602 | 36327 ft | 442 kts | 288° |
| 2026-05-01 13:49 | 43.09474 | 24.22625 | 36311 ft | 442 kts | 296° |
| 2026-05-01 13:50 | 43.12612 | 24.15404 | 36304 ft | 443 kts | 301° |
| 2026-05-01 13:50 | 43.15860 | 24.08241 | 36320 ft | 443 kts | 302° |
| 2026-05-01 13:51 | 43.19128 | 24.01098 | 36324 ft | 444 kts | 302° |
| 2026-05-01 13:51 | 43.22415 | 23.93907 | 36323 ft | 445 kts | 302° |
| 2026-05-01 13:52 | 43.25700 | 23.86705 | 36321 ft | 445 kts | 302° |
| 2026-05-01 13:52 | 43.28403 | 23.79131 | 36293 ft | 444 kts | 282° |
| 2026-05-01 13:53 | 43.29311 | 23.70730 | 36301 ft | 447 kts | 278° |
| 2026-05-01 13:53 | 43.30495 | 23.58020 | 36321 ft | 448 kts | 278° |
| 2026-05-01 13:54 | 43.31246 | 23.49527 | 36323 ft | 448 kts | 278° |
| 2026-05-01 13:54 | 43.31987 | 23.41049 | 36322 ft | 448 kts | 278° |
| 2026-05-01 13:55 | 43.32720 | 23.32606 | 36309 ft | 447 kts | 278° |
| 2026-05-01 13:55 | 43.33452 | 23.24120 | 36313 ft | 447 kts | 278° |
| 2026-05-01 13:56 | 43.34180 | 23.15617 | 36319 ft | 448 kts | 278° |
| 2026-05-01 13:56 | 43.34898 | 23.07153 | 36314 ft | 447 kts | 278° |
| 2026-05-01 13:57 | 43.35611 | 22.98663 | 36316 ft | 448 kts | 278° |
| 2026-05-01 13:57 | 43.36320 | 22.90152 | 36309 ft | 450 kts | 278° |
| 2026-05-01 13:58 | 43.37027 | 22.81598 | 36303 ft | 450 kts | 278° |
| 2026-05-01 13:58 | 43.38462 | 22.73343 | 36313 ft | 445 kts | 292° |
| 2026-05-01 13:59 | 43.40651 | 22.65341 | 36294 ft | 447 kts | 292° |
| 2026-05-01 13:59 | 43.42870 | 22.57347 | 36289 ft | 448 kts | 292° |
| 2026-05-01 14:00 | 43.45097 | 22.49336 | 36289 ft | 448 kts | 292° |
| 2026-05-01 14:00 | 43.47318 | 22.41334 | 36292 ft | 448 kts | 292° |
| 2026-05-01 14:01 | 43.49367 | 22.33242 | 36294 ft | 448 kts | 289° |
| 2026-05-01 14:01 | 43.51271 | 22.25060 | 36287 ft | 449 kts | 289° |
| 2026-05-01 14:02 | 43.53197 | 22.16846 | 36291 ft | 450 kts | 290° |
| 2026-05-01 14:02 | 43.55104 | 22.08687 | 36289 ft | 450 kts | 290° |
| 2026-05-01 14:03 | 43.57019 | 22.00461 | 36279 ft | 449 kts | 289° |
| 2026-05-01 14:03 | 43.58921 | 21.92262 | 36286 ft | 450 kts | 289° |
| 2026-05-01 14:04 | 43.60825 | 21.84026 | 36279 ft | 450 kts | 289° |
| 2026-05-01 14:04 | 43.62406 | 21.77162 | 36281 ft | 449 kts | 289° |
| 2026-05-01 14:05 | 43.64604 | 21.67585 | 36282 ft | 450 kts | 289° |
| 2026-05-01 14:05 | 43.66486 | 21.59348 | 36286 ft | 452 kts | 289° |
| 2026-05-01 14:06 | 43.68373 | 21.51063 | 36286 ft | 452 kts | 289° |
| 2026-05-01 14:06 | 43.70251 | 21.42780 | 36284 ft | 452 kts | 289° |
| 2026-05-01 14:07 | 43.72122 | 21.34502 | 36281 ft | 452 kts | 289° |
| 2026-05-01 14:08 | 43.74927 | 21.22027 | 36287 ft | 454 kts | 289° |
| 2026-05-01 14:08 | 43.76790 | 21.13704 | 36283 ft | 454 kts | 289° |
| 2026-05-01 14:09 | 43.78647 | 21.05372 | 36282 ft | 454 kts | 289° |
| 2026-05-01 14:09 | 43.80506 | 20.97001 | 36268 ft | 454 kts | 289° |
| 2026-05-01 14:10 | 43.82361 | 20.88615 | 36283 ft | 456 kts | 289° |
| 2026-05-01 14:10 | 43.84211 | 20.80216 | 36281 ft | 456 kts | 289° |
| 2026-05-01 14:11 | 43.86048 | 20.71847 | 36289 ft | 456 kts | 289° |
| 2026-05-01 14:11 | 43.88801 | 20.59244 | 36286 ft | 457 kts | 290° |
| 2026-05-01 14:12 | 43.90644 | 20.50761 | 36293 ft | 458 kts | 290° |
| 2026-05-01 14:12 | 43.92461 | 20.42365 | 36293 ft | 458 kts | 290° |
| 2026-05-01 14:13 | 43.93979 | 20.35324 | 36285 ft | 458 kts | 290° |
| 2026-05-01 14:13 | 43.96106 | 20.25422 | 36283 ft | 458 kts | 290° |
| 2026-05-01 14:14 | 43.97922 | 20.16925 | 36285 ft | 459 kts | 290° |
| 2026-05-01 14:14 | 43.99725 | 20.08459 | 36287 ft | 458 kts | 290° |
| 2026-05-01 14:15 | 44.01532 | 19.99940 | 36290 ft | 459 kts | 290° |
| 2026-05-01 14:15 | 44.03330 | 19.91425 | 36282 ft | 460 kts | 290° |
| 2026-05-01 14:16 | 44.05127 | 19.82881 | 36284 ft | 460 kts | 290° |
| 2026-05-01 14:16 | 44.06914 | 19.74348 | 36285 ft | 460 kts | 290° |
| 2026-05-01 14:17 | 44.08699 | 19.65793 | 36287 ft | 461 kts | 290° |
| 2026-05-01 14:17 | 44.10481 | 19.57217 | 36289 ft | 462 kts | 290° |
| 2026-05-01 14:18 | 44.12251 | 19.48657 | 36291 ft | 463 kts | 290° |
| 2026-05-01 14:18 | 44.13733 | 19.41466 | 36301 ft | 463 kts | 290° |
| 2026-05-01 14:19 | 44.15787 | 19.31455 | 36294 ft | 463 kts | 290° |
| 2026-05-01 14:19 | 44.17551 | 19.22818 | 36287 ft | 465 kts | 290° |
| 2026-05-01 14:20 | 44.20189 | 19.09826 | 36293 ft | 465 kts | 290° |
| 2026-05-01 14:21 | 44.21944 | 19.01144 | 36298 ft | 466 kts | 290° |
| 2026-05-01 14:21 | 44.23693 | 18.92448 | 36265 ft | 465 kts | 290° |
| 2026-05-01 14:22 | 44.26311 | 18.79359 | 36290 ft | 467 kts | 290° |
| 2026-05-01 14:22 | 44.28043 | 18.70656 | 36299 ft | 467 kts | 290° |
| 2026-05-01 14:23 | 44.29774 | 18.61914 | 36300 ft | 467 kts | 290° |
| 2026-05-01 14:23 | 44.31500 | 18.53163 | 36300 ft | 467 kts | 290° |
| 2026-05-01 14:24 | 44.32926 | 18.45898 | 36285 ft | 467 kts | 290° |
| 2026-05-01 14:24 | 44.34636 | 18.37163 | 36305 ft | 468 kts | 290° |
| 2026-05-01 14:25 | 44.36343 | 18.28395 | 36292 ft | 467 kts | 290° |
| 2026-05-01 14:25 | 44.38043 | 18.19624 | 36294 ft | 469 kts | 290° |
| 2026-05-01 14:26 | 44.40590 | 18.06407 | 36307 ft | 470 kts | 290° |
| 2026-05-01 14:27 | 44.42281 | 17.97583 | 36289 ft | 470 kts | 290° |
| 2026-05-01 14:27 | 44.43966 | 17.88749 | 36284 ft | 470 kts | 290° |
| 2026-05-01 14:28 | 44.46485 | 17.75468 | 36312 ft | 472 kts | 290° |
| 2026-05-01 14:28 | 44.48161 | 17.66578 | 36317 ft | 472 kts | 290° |
| 2026-05-01 14:29 | 44.49830 | 17.57686 | 36295 ft | 472 kts | 290° |
| 2026-05-01 14:30 | 44.53154 | 17.39845 | 36308 ft | 475 kts | 290° |
| 2026-05-01 14:31 | 44.55624 | 17.26480 | 36313 ft | 475 kts | 290° |
| 2026-05-01 14:31 | 44.57272 | 17.17508 | 36279 ft | 474 kts | 290° |
| 2026-05-01 14:32 | 44.58916 | 17.08514 | 36319 ft | 477 kts | 290° |
| 2026-05-01 14:32 | 44.60549 | 16.99538 | 36314 ft | 476 kts | 290° |
| 2026-05-01 14:33 | 44.62181 | 16.90523 | 36304 ft | 476 kts | 290° |
| 2026-05-01 14:33 | 44.63146 | 16.86124 | 36469 ft | 466 kts | 295° |
| 2026-05-01 14:33 | 44.63845 | 16.81633 | 36120 ft | 480 kts | 263° |
| 2026-05-01 14:33 | 44.62909 | 16.77151 | 35204 ft | 486 kts | 237° |
| 2026-05-01 14:34 | 44.61122 | 16.73126 | 34361 ft | 485 kts | 250° |
| 2026-05-01 14:34 | 44.59977 | 16.68838 | 34677 ft | 466 kts | 231° |
| 2026-05-01 14:34 | 44.58579 | 16.64766 | 34750 ft | 467 kts | 236° |
| 2026-05-01 14:34 | 44.56898 | 16.60800 | 34121 ft | 483 kts | 237° |
| 2026-05-01 14:35 | 44.55028 | 16.56845 | 33032 ft | 489 kts | 230° |
| 2026-05-01 14:35 | 44.52837 | 16.53114 | 31811 ft | 500 kts | 227° |
| 2026-05-01 14:35 | 44.51126 | 16.48875 | 31036 ft | 501 kts | 251° |
| 2026-05-01 14:35 | 44.49987 | 16.44317 | 31503 ft | 493 kts | 259° |
| 2026-05-01 14:36 | 44.49465 | 16.39695 | 31638 ft | 488 kts | 273° |
| 2026-05-01 14:36 | 44.49459 | 16.34946 | 31775 ft | 485 kts | 284° |
| 2026-05-01 14:36 | 44.50264 | 16.30418 | 31796 ft | 474 kts | 301° |
| 2026-05-01 14:36 | 44.51708 | 16.26314 | 32022 ft | 471 kts | 303° |
| 2026-05-01 14:37 | 44.52970 | 16.22049 | 32185 ft | 480 kts | 299° |
| 2026-05-01 14:37 | 44.54143 | 16.17669 | 32400 ft | 482 kts | 298° |
| 2026-05-01 14:37 | 44.55285 | 16.13268 | 32582 ft | 482 kts | 297° |
| 2026-05-01 14:37 | 44.56405 | 16.08860 | 33023 ft | 479 kts | 297° |
| 2026-05-01 14:38 | 44.57504 | 16.04501 | 33699 ft | 471 kts | 297° |
| 2026-05-01 14:38 | 44.58581 | 16.00207 | 34368 ft | 463 kts | 298° |
| 2026-05-01 14:38 | 44.59629 | 15.96011 | 35160 ft | 448 kts | 297° |
| 2026-05-01 14:38 | 44.60647 | 15.91946 | 35884 ft | 438 kts | 297° |
| 2026-05-01 14:39 | 44.61666 | 15.87857 | 35731 ft | 450 kts | 297° |
| 2026-05-01 14:39 | 44.63747 | 15.79424 | 35551 ft | 470 kts | 296° |
| 2026-05-01 14:39 | 44.64818 | 15.75068 | 35697 ft | 470 kts | 296° |
| 2026-05-01 14:40 | 44.65873 | 15.70799 | 36301 ft | 462 kts | 296° |
| 2026-05-01 14:40 | 44.67992 | 15.62178 | 36292 ft | 471 kts | 296° |
| 2026-05-01 14:41 | 44.70124 | 15.53469 | 36315 ft | 473 kts | 296° |
| 2026-05-01 14:41 | 44.72248 | 15.44761 | 36279 ft | 472 kts | 296° |
| 2026-05-01 14:42 | 44.74366 | 15.36043 | 36295 ft | 471 kts | 296° |
| 2026-05-01 14:42 | 44.76479 | 15.27315 | 36298 ft | 472 kts | 296° |
| 2026-05-01 14:43 | 44.78587 | 15.18574 | 36271 ft | 471 kts | 296° |
| 2026-05-01 14:43 | 44.80682 | 15.09852 | 36298 ft | 471 kts | 296° |
| 2026-05-01 14:44 | 44.82770 | 15.01125 | 36298 ft | 471 kts | 295° |
| 2026-05-01 14:44 | 44.85880 | 14.88064 | 36297 ft | 471 kts | 295° |
| 2026-05-01 14:45 | 44.88990 | 14.74925 | 36292 ft | 471 kts | 295° |
| 2026-05-01 14:46 | 44.91052 | 14.66167 | 36295 ft | 471 kts | 295° |
| 2026-05-01 14:46 | 44.94132 | 14.53026 | 36292 ft | 470 kts | 295° |
| 2026-05-01 14:47 | 44.96175 | 14.44267 | 36296 ft | 469 kts | 295° |
| 2026-05-01 14:48 | 44.99220 | 14.31142 | 36297 ft | 470 kts | 295° |
| 2026-05-01 14:48 | 45.02246 | 14.18022 | 36301 ft | 466 kts | 294° |
| 2026-05-01 14:49 | 45.06210 | 14.00717 | 36308 ft | 466 kts | 294° |
| 2026-05-01 14:50 | 45.10192 | 13.83448 | 36268 ft | 464 kts | 293° |
| 2026-05-01 14:51 | 45.13091 | 13.70346 | 36322 ft | 467 kts | 294° |
| 2026-05-01 14:52 | 45.15698 | 13.58715 | 36313 ft | 466 kts | 294° |
| 2026-05-01 14:53 | 45.18364 | 13.46763 | 36305 ft | 464 kts | 293° |
| 2026-05-01 14:53 | 45.19881 | 13.37847 | 36317 ft | 467 kts | 289° |
| 2026-05-01 14:54 | 45.21380 | 13.28876 | 36316 ft | 467 kts | 289° |
| 2026-05-01 14:54 | 45.22887 | 13.19920 | 36289 ft | 467 kts | 289° |
| 2026-05-01 14:55 | 45.24380 | 13.11001 | 36317 ft | 464 kts | 289° |
| 2026-05-01 14:55 | 45.25863 | 13.02107 | 36325 ft | 464 kts | 288° |
| 2026-05-01 14:55 | 45.26301 | 12.97541 | 36296 ft | 471 kts | 275° |
| 2026-05-01 14:56 | 45.26324 | 12.92884 | 36321 ft | 473 kts | 276° |
| 2026-05-01 14:56 | 45.26460 | 12.83621 | 36330 ft | 473 kts | 276° |
| 2026-05-01 14:57 | 45.26561 | 12.74290 | 36329 ft | 471 kts | 275° |
| 2026-05-01 14:57 | 45.26694 | 12.60384 | 36329 ft | 469 kts | 275° |
| 2026-05-01 14:58 | 45.26772 | 12.51134 | 36331 ft | 468 kts | 275° |
| 2026-05-01 14:58 | 45.26843 | 12.41881 | 36301 ft | 468 kts | 275° |
| 2026-05-01 14:59 | 45.26906 | 12.32697 | 36326 ft | 465 kts | 275° |
| 2026-05-01 14:59 | 45.26994 | 12.23541 | 36367 ft | 464 kts | 275° |
| 2026-05-01 15:00 | 45.27033 | 12.09772 | 36360 ft | 465 kts | 275° |
| 2026-05-01 15:01 | 45.27068 | 12.00653 | 36336 ft | 463 kts | 274° |
| 2026-05-01 15:01 | 45.27099 | 11.91560 | 36344 ft | 461 kts | 274° |
| 2026-05-01 15:02 | 45.27122 | 11.82464 | 36346 ft | 461 kts | 274° |
| 2026-05-01 15:02 | 45.27137 | 11.73360 | 36348 ft | 461 kts | 274° |
| 2026-05-01 15:03 | 45.27145 | 11.64257 | 36341 ft | 461 kts | 274° |
| 2026-05-01 15:03 | 45.27146 | 11.55210 | 36343 ft | 458 kts | 274° |
| 2026-05-01 15:04 | 45.27140 | 11.46132 | 36347 ft | 458 kts | 274° |
| 2026-05-01 15:04 | 45.27127 | 11.37185 | 36346 ft | 459 kts | 274° |
| 2026-05-01 15:05 | 45.27107 | 11.28141 | 36349 ft | 459 kts | 274° |
| 2026-05-01 15:05 | 45.27079 | 11.19082 | 36345 ft | 458 kts | 273° |
| 2026-05-01 15:06 | 45.27045 | 11.10024 | 36343 ft | 459 kts | 273° |
| 2026-05-01 15:06 | 45.27003 | 11.00966 | 36347 ft | 459 kts | 273° |
| 2026-05-01 15:07 | 45.26954 | 10.91929 | 36327 ft | 459 kts | 273° |
| 2026-05-01 15:07 | 45.26898 | 10.82935 | 36311 ft | 457 kts | 273° |
| 2026-05-01 15:08 | 45.26835 | 10.73939 | 36313 ft | 455 kts | 273° |
| 2026-05-01 15:08 | 45.26766 | 10.64970 | 36329 ft | 454 kts | 273° |
| 2026-05-01 15:09 | 45.26689 | 10.56026 | 36341 ft | 454 kts | 273° |
| 2026-05-01 15:09 | 45.26606 | 10.47058 | 36336 ft | 454 kts | 273° |
| 2026-05-01 15:10 | 45.26515 | 10.38118 | 36336 ft | 451 kts | 272° |
| 2026-05-01 15:10 | 45.26367 | 10.24766 | 36321 ft | 451 kts | 272° |
| 2026-05-01 15:11 | 45.26204 | 10.11455 | 36329 ft | 451 kts | 272° |
| 2026-05-01 15:12 | 45.26086 | 10.02529 | 36325 ft | 450 kts | 272° |
| 2026-05-01 15:12 | 45.25899 | 9.89303 | 36333 ft | 449 kts | 272° |
| 2026-05-01 15:14 | 45.25553 | 9.67332 | 36298 ft | 449 kts | 272° |
| 2026-05-01 15:14 | 45.25351 | 9.55558 | 36303 ft | 448 kts | 271° |
| 2026-05-01 15:15 | 45.25024 | 9.37893 | 36311 ft | 448 kts | 271° |
| 2026-05-01 15:16 | 45.24670 | 9.20199 | 36327 ft | 448 kts | 271° |
| 2026-05-01 15:18 | 45.24190 | 8.98177 | 36340 ft | 448 kts | 271° |
| 2026-05-01 15:19 | 45.23776 | 8.80552 | 36302 ft | 447 kts | 270° |
| 2026-05-01 15:19 | 45.23448 | 8.67358 | 36296 ft | 446 kts | 270° |
| 2026-05-01 15:20 | 45.23112 | 8.54409 | 36302 ft | 446 kts | 270° |
| 2026-05-01 15:21 | 45.22875 | 8.45609 | 36306 ft | 445 kts | 270° |
| 2026-05-01 15:21 | 45.22633 | 8.36895 | 36341 ft | 443 kts | 269° |
| 2026-05-01 15:22 | 45.22258 | 8.23788 | 36344 ft | 443 kts | 269° |
| 2026-05-01 15:22 | 45.21999 | 8.15060 | 36344 ft | 443 kts | 269° |
| 2026-05-01 15:23 | 45.21741 | 8.06578 | 36344 ft | 442 kts | 269° |
| 2026-05-01 15:23 | 45.21470 | 7.97860 | 36346 ft | 442 kts | 269° |
| 2026-05-01 15:24 | 45.21195 | 7.89229 | 36345 ft | 442 kts | 269° |
| 2026-05-01 15:24 | 45.20911 | 7.80531 | 36347 ft | 442 kts | 269° |
| 2026-05-01 15:25 | 45.20622 | 7.71850 | 36347 ft | 442 kts | 269° |
| 2026-05-01 15:25 | 45.20328 | 7.63163 | 36345 ft | 440 kts | 269° |
| 2026-05-01 15:26 | 45.20028 | 7.54496 | 36347 ft | 440 kts | 269° |
| 2026-05-01 15:26 | 45.19723 | 7.45845 | 36306 ft | 440 kts | 269° |
| 2026-05-01 15:27 | 45.19410 | 7.37178 | 36298 ft | 441 kts | 269° |
| 2026-05-01 15:28 | 45.18930 | 7.24170 | 36282 ft | 440 kts | 269° |
| 2026-05-01 15:28 | 45.18981 | 7.15567 | 36290 ft | 436 kts | 284° |
| 2026-05-01 15:29 | 45.22075 | 7.03555 | 36311 ft | 436 kts | 292° |
| 2026-05-01 15:30 | 45.26612 | 6.87670 | 36313 ft | 432 kts | 293° |
| 2026-05-01 15:31 | 45.33390 | 6.63917 | 36266 ft | 433 kts | 292° |
| 2026-05-01 15:32 | 45.37872 | 6.48089 | 36249 ft | 431 kts | 292° |
| 2026-05-01 15:34 | 45.42753 | 6.23595 | 36222 ft | 430 kts | 285° |